Time;durP1;ratioP1;P1;durP2;ratioP2;P2;SDS_P1;SDS_P2;PMS_P1;PMS_P2;Temp;Humidity;BMP_temperature;BMP_pressure;BME280_temperature;BME280_humidity;BME280_pressure;Samples;Min_cycle;Max_cycle;Signal;HPM_P1;HPM_P2
2022/11/01 00:01:57;;;;;;;11.77;5.37;;;18.10;99.90;;;;;;4976212;28;20180;-70
2022/11/01 00:04:23;;;;;;;6.40;4.90;;;18.10;99.90;;;;;;4974883;28;20179;-69
2022/11/01 00:06:49;;;;;;;8.73;4.80;;;18.10;99.90;;;;;;4976075;28;20176;-69
2022/11/01 00:09:15;;;;;;;8.33;4.87;;;18.10;99.90;;;;;;4975965;28;20227;-70
2022/11/01 00:11:41;;;;;;;12.10;5.40;;;18.10;99.90;;;;;;4975494;28;20183;-70
2022/11/01 00:14:09;;;;;;;7.03;4.97;;;18.10;99.90;;;;;;4975851;28;20524;-69
2022/11/01 00:16:35;;;;;;;10.27;5.07;;;18.10;99.90;;;;;;4975814;28;20238;-70
2022/11/01 00:19:00;;;;;;;12.93;5.37;;;18.20;99.90;;;;;;4975808;28;20603;-70
2022/11/01 00:21:26;;;;;;;6.67;5.00;;;18.20;99.90;;;;;;4974686;28;20172;-70
2022/11/01 00:23:52;;;;;;;9.47;5.23;;;18.20;99.90;;;;;;4975672;28;20639;-70
2022/11/01 00:26:20;;;;;;;6.97;5.03;;;18.20;99.90;;;;;;4975134;28;20235;-70
2022/11/01 00:28:46;;;;;;;7.13;5.17;;;18.20;99.90;;;;;;4975694;28;20230;-70
2022/11/01 00:31:13;;;;;;;6.93;4.70;;;18.20;99.90;;;;;;4975406;28;20216;-70
2022/11/01 00:33:39;;;;;;;9.70;4.33;;;18.20;99.90;;;;;;4975765;28;20184;-70
2022/11/01 00:36:06;;;;;;;10.30;4.63;;;18.20;99.90;;;;;;4975536;28;20222;-70
2022/11/01 00:38:31;;;;;;;7.27;4.90;;;18.30;99.90;;;;;;4975574;28;20179;-68
2022/11/01 00:40:57;;;;;;;11.30;5.00;;;18.30;99.90;;;;;;4975108;28;20188;-70
2022/11/01 00:43:23;;;;;;;9.27;4.87;;;18.30;99.90;;;;;;4975403;28;20168;-69
2022/11/01 00:45:49;;;;;;;6.63;4.77;;;18.40;99.90;;;;;;4975585;28;20578;-70
2022/11/01 00:48:15;;;;;;;9.53;5.07;;;18.40;99.90;;;;;;4975284;28;20251;-70
2022/11/01 00:50:41;;;;;;;5.10;4.60;;;18.50;99.90;;;;;;4975422;28;20315;-69
2022/11/01 00:53:09;;;;;;;7.53;4.70;;;18.50;99.90;;;;;;4975275;28;20625;-69
2022/11/01 00:55:35;;;;;;;9.60;4.70;;;18.50;99.90;;;;;;4974666;28;20199;-69
2022/11/01 00:58:01;;;;;;;5.82;4.35;;;18.50;99.90;;;;;;4975099;28;20191;-69
2022/11/01 01:00:27;;;;;;;11.00;4.88;;;18.50;99.90;;;;;;4975095;28;20582;-69
2022/11/01 01:02:52;;;;;;;7.35;4.75;;;18.50;99.90;;;;;;4974571;28;20200;-69
2022/11/01 01:05:18;;;;;;;6.55;4.35;;;18.50;99.90;;;;;;4973785;28;20524;-69
2022/11/01 01:07:44;;;;;;;8.57;4.83;;;18.50;99.90;;;;;;4974771;28;20211;-69
2022/11/01 01:10:09;;;;;;;6.37;4.47;;;18.40;99.90;;;;;;4974985;28;20176;-69
2022/11/01 01:12:35;;;;;;;7.87;4.23;;;18.40;99.90;;;;;;4974781;28;20280;-70
2022/11/01 01:15:01;;;;;;;6.38;4.40;;;18.40;99.90;;;;;;4974860;28;20207;-69
2022/11/01 01:17:27;;;;;;;7.17;4.93;;;18.40;99.90;;;;;;4974739;28;20616;-69
2022/11/01 01:19:52;;;;;;;8.80;4.17;;;18.30;99.90;;;;;;4974720;28;20624;-69
2022/11/01 01:22:18;;;;;;;6.57;4.37;;;18.30;99.90;;;;;;4974239;28;20175;-70
2022/11/01 01:24:46;;;;;;;6.37;3.90;;;18.30;99.90;;;;;;4974766;28;20233;-70
2022/11/01 01:27:15;;;;;;;5.80;4.17;;;18.20;99.90;;;;;;4974472;28;20180;-70
2022/11/01 01:29:42;;;;;;;5.50;4.13;;;18.10;99.90;;;;;;4974667;28;20631;-70
2022/11/01 01:32:11;;;;;;;5.77;3.90;;;18.10;99.90;;;;;;4974580;28;20211;-69
2022/11/01 01:34:37;;;;;;;5.70;3.30;;;18.20;99.90;;;;;;4974658;28;20172;-70
2022/11/01 01:37:02;;;;;;;4.30;3.73;;;18.10;99.90;;;;;;4973949;28;20216;-68
2022/11/01 01:39:28;;;;;;;5.57;3.50;;;18.00;99.90;;;;;;4974591;28;20176;-70
2022/11/01 01:41:56;;;;;;;5.23;3.00;;;17.90;99.90;;;;;;4973208;28;20179;-69
2022/11/01 01:44:49;;;;;;;6.17;2.73;;;17.90;99.90;;;;;;4974534;28;20259;-69
2022/11/01 01:47:20;;;;;;;4.17;2.60;;;17.90;99.90;;;;;;4974462;28;20179;-69
2022/11/01 01:49:54;;;;;;;5.23;2.80;;;17.80;99.90;;;;;;4974552;28;20540;-69
2022/11/01 01:52:20;;;;;;;5.80;2.73;;;17.80;99.90;;;;;;4974074;28;20303;-69
2022/11/01 01:54:46;;;;;;;5.20;2.80;;;17.70;99.90;;;;;;4974371;28;20179;-69
2022/11/01 01:57:12;;;;;;;5.53;3.20;;;17.60;99.90;;;;;;4974153;28;20207;-69
2022/11/01 01:59:39;;;;;;;4.77;3.10;;;17.60;99.90;;;;;;4974364;28;20247;-69
2022/11/01 02:02:05;;;;;;;3.27;2.40;;;17.60;99.90;;;;;;4974090;28;20172;-69
2022/11/01 02:04:39;;;;;;;4.60;2.77;;;17.60;99.90;;;;;;4973040;28;20175;-70
2022/11/01 02:07:06;;;;;;;5.60;2.50;;;17.50;99.90;;;;;;4973935;28;20258;-70
2022/11/01 02:09:33;;;;;;;4.53;2.50;;;17.50;99.90;;;;;;4974314;28;20172;-69
2022/11/01 02:11:59;;;;;;;6.00;2.43;;;17.50;99.90;;;;;;4974462;28;20180;-69
2022/11/01 02:14:25;;;;;;;2.90;2.03;;;17.50;99.90;;;;;;4974762;28;20636;-69
2022/11/01 02:17:09;;;;;;;4.70;2.50;;;17.40;99.90;;;;;;4978077;28;20239;-69
2022/11/01 02:19:46;;;;;;;4.10;2.03;;;17.50;99.90;;;;;;4978103;28;20188;-69
2022/11/01 02:22:32;;;;;;;2.17;1.63;;;17.40;99.90;;;;;;4977901;28;20182;-69
2022/11/01 02:25:23;;;;;;;3.33;1.80;;;17.20;99.90;;;;;;4977926;28;20187;-69
2022/11/01 02:28:00;;;;;;;2.40;1.30;;;17.20;99.90;;;;;;4977772;28;20171;-70
2022/11/01 02:30:40;;;;;;;2.43;1.10;;;17.10;99.90;;;;;;4977640;28;20219;-69
2022/11/01 02:33:18;;;;;;;3.70;1.23;;;17.00;99.90;;;;;;4976445;28;20183;-69
2022/11/01 02:35:57;;;;;;;2.43;1.00;;;16.90;99.90;;;;;;4977419;28;20253;-69
2022/11/01 02:38:25;;;;;;;4.47;1.10;;;16.80;99.90;;;;;;4977676;28;20207;-69
2022/11/01 02:41:03;;;;;;;1.10;0.80;;;16.80;99.90;;;;;;4977629;28;20179;-69
2022/11/01 02:43:53;;;;;;;3.70;1.00;;;16.60;99.90;;;;;;4976208;28;20167;-69
2022/11/01 02:49:05;;;;;;;3.97;1.03;;;16.50;99.90;;;;;;4977885;28;20598;-70
2022/11/01 02:51:33;;;;;;;1.23;0.97;;;16.30;99.90;;;;;;4977022;28;20216;-69
2022/11/01 02:54:09;;;;;;;1.30;0.90;;;16.20;99.90;;;;;;4977348;28;20176;-70
2022/11/01 02:56:36;;;;;;;1.40;0.87;;;16.10;99.90;;;;;;4977291;28;20207;-69
2022/11/01 02:59:02;;;;;;;1.50;1.00;;;16.10;99.90;;;;;;4977356;28;20176;-68
2022/11/01 03:01:30;;;;;;;1.07;0.97;;;16.00;99.90;;;;;;4977088;28;20183;-68
2022/11/01 03:03:57;;;;;;;1.83;0.80;;;16.00;99.90;;;;;;4975444;28;20545;-69
2022/11/01 03:06:31;;;;;;;3.40;1.20;;;15.90;99.90;;;;;;4977417;28;20191;-69
2022/11/01 03:09:01;;;;;;;2.33;0.90;;;15.90;99.90;;;;;;4975794;28;20171;-69
2022/11/01 03:11:32;;;;;;;2.73;1.00;;;15.80;99.90;;;;;;4977219;28;20207;-69
2022/11/01 03:14:16;;;;;;;4.83;0.90;;;15.80;99.90;;;;;;4977044;28;20160;-69
2022/11/01 03:16:47;;;;;;;2.93;0.90;;;15.80;99.90;;;;;;4976828;28;20291;-69
2022/11/01 03:19:38;;;;;;;2.90;1.10;;;15.70;99.90;;;;;;4976368;28;20184;-69
2022/11/01 03:22:12;;;;;;;2.13;1.20;;;15.60;99.90;;;;;;4976958;28;20176;-69
2022/11/01 03:24:47;;;;;;;2.00;1.00;;;15.60;99.90;;;;;;4977022;28;20219;-69
2022/11/01 03:27:34;;;;;;;4.77;1.20;;;15.60;99.90;;;;;;4975737;28;20658;-69
2022/11/01 03:30:12;;;;;;;2.67;0.90;;;15.60;99.90;;;;;;4976651;28;20207;-69
2022/11/01 03:32:46;;;;;;;1.87;0.87;;;15.60;99.90;;;;;;4976685;28;20621;-69
2022/11/01 03:35:21;;;;;;;1.33;1.10;;;15.50;99.90;;;;;;4976641;28;20258;-69
2022/11/01 03:37:50;;;;;;;2.97;0.90;;;15.50;99.90;;;;;;4976554;28;20176;-70
2022/11/01 03:40:17;;;;;;;1.47;1.00;;;15.50;99.90;;;;;;4976531;28;20177;-69
2022/11/01 03:42:46;;;;;;;6.77;1.30;;;15.40;99.90;;;;;;4976462;28;20186;-69
2022/11/01 03:45:14;;;;;;;3.50;1.23;;;15.40;99.90;;;;;;4976628;28;20233;-69
2022/11/01 03:47:39;;;;;;;3.77;1.20;;;15.40;99.90;;;;;;4976075;28;20191;-71
2022/11/01 03:50:15;;;;;;;3.47;1.07;;;15.30;99.90;;;;;;4976448;28;20189;-70
2022/11/01 03:52:41;;;;;;;3.57;1.10;;;15.20;99.90;;;;;;4976204;28;20179;-69
2022/11/01 03:55:17;;;;;;;1.70;1.07;;;15.30;99.90;;;;;;4976555;28;20168;-69
2022/11/01 03:57:53;;;;;;;1.33;0.97;;;15.30;99.90;;;;;;4975014;28;20278;-69
2022/11/01 04:00:22;;;;;;;6.67;1.10;;;15.20;99.90;;;;;;4976275;28;20171;-69
2022/11/01 04:02:52;;;;;;;2.00;0.87;;;15.20;99.90;;;;;;4975662;28;20172;-69
2022/11/01 04:05:19;;;;;;;3.60;1.20;;;15.10;99.90;;;;;;4976130;28;20238;-68
2022/11/01 04:07:45;;;;;;;2.27;1.13;;;15.00;99.90;;;;;;4976128;28;20171;-69
2022/11/01 04:10:11;;;;;;;4.20;1.10;;;15.00;99.90;;;;;;4976022;28;20563;-69
2022/11/01 04:12:37;;;;;;;1.73;1.00;;;15.00;99.90;;;;;;4975964;28;20187;-69
2022/11/01 04:20:33;;;;;;;3.17;1.00;;;15.00;99.90;;;;;;4976288;28;20206;-69
2022/11/01 04:23:03;;;;;;;2.67;1.00;;;14.90;99.90;;;;;;4975736;28;20620;-69
2022/11/01 04:25:30;;;;;;;6.57;1.33;;;15.00;99.90;;;;;;4975803;28;20168;-68
2022/11/01 04:27:55;;;;;;;3.97;1.37;;;15.00;99.90;;;;;;4975503;28;20616;-68
2022/11/01 04:30:22;;;;;;;3.93;1.30;;;15.10;99.90;;;;;;4975397;28;20234;-69
2022/11/01 04:32:48;;;;;;;2.50;1.10;;;15.00;99.90;;;;;;4975404;28;20175;-69
2022/11/01 04:35:13;;;;;;;3.83;1.10;;;15.00;99.90;;;;;;4975454;28;20621;-69
2022/11/01 04:37:39;;;;;;;4.57;1.13;;;14.90;99.90;;;;;;4973467;28;20183;-68
2022/11/01 04:40:09;;;;;;;1.80;0.90;;;14.80;99.90;;;;;;4974934;28;20172;-70
2022/11/01 04:42:36;;;;;;;5.93;1.40;;;14.80;99.90;;;;;;4974959;28;20179;-68
2022/11/01 04:45:03;;;;;;;5.60;1.40;;;14.70;99.90;;;;;;4974038;28;20513;-69
2022/11/01 04:47:29;;;;;;;4.80;1.03;;;14.50;99.90;;;;;;4974443;28;20571;-69
2022/11/01 04:49:54;;;;;;;4.63;1.23;;;14.50;99.90;;;;;;4975263;28;20191;-69
2022/11/01 04:52:20;;;;;;;4.37;1.10;;;14.50;99.90;;;;;;4975146;28;20199;-69
2022/11/01 04:54:46;;;;;;;4.33;1.20;;;14.50;99.90;;;;;;4975122;28;20176;-69
2022/11/01 04:57:24;;;;;;;3.80;1.13;;;14.50;99.90;;;;;;4974765;28;20642;-69
2022/11/01 04:59:54;;;;;;;2.83;1.20;;;14.40;99.90;;;;;;4974855;28;20172;-69
2022/11/01 05:02:21;;;;;;;4.13;1.10;;;14.40;99.90;;;;;;4974987;28;20313;-69
2022/11/01 05:04:47;;;;;;;5.77;1.23;;;14.30;99.90;;;;;;4974783;28;20182;-70
2022/11/01 05:07:13;;;;;;;5.50;1.47;;;14.20;99.90;;;;;;4974804;28;20560;-69
2022/11/01 05:09:39;;;;;;;3.17;1.10;;;14.20;99.90;;;;;;4974867;28;20230;-69
2022/11/01 05:12:05;;;;;;;3.20;1.00;;;14.10;99.90;;;;;;4974510;28;20180;-68
2022/11/01 05:14:31;;;;;;;5.30;1.20;;;14.10;99.90;;;;;;4974588;28;20178;-69
2022/11/01 05:16:57;;;;;;;3.60;1.30;;;14.00;99.90;;;;;;4974186;28;20696;-68
2022/11/01 05:19:23;;;;;;;4.27;1.10;;;14.00;99.90;;;;;;4974663;28;20254;-68
2022/11/01 05:21:49;;;;;;;10.87;1.30;;;14.00;99.90;;;;;;4974596;28;20270;-68
2022/11/01 05:24:14;;;;;;;6.63;1.30;;;13.90;99.90;;;;;;4974812;28;20610;-69
2022/11/01 05:26:40;;;;;;;2.57;1.23;;;13.90;99.90;;;;;;4974890;28;20176;-69
2022/11/01 05:29:06;;;;;;;6.00;1.47;;;13.90;99.90;;;;;;4974209;28;20179;-69
2022/11/01 05:31:31;;;;;;;2.93;1.33;;;13.80;99.90;;;;;;4974231;28;20259;-68
2022/11/01 05:33:57;;;;;;;5.30;1.20;;;13.80;99.90;;;;;;4974499;28;20179;-68
2022/11/01 05:36:22;;;;;;;6.33;1.40;;;13.80;99.90;;;;;;4974465;28;20215;-69
2022/11/01 05:38:48;;;;;;;5.43;1.37;;;13.80;99.90;;;;;;4974282;28;20176;-69
2022/11/01 05:41:14;;;;;;;4.83;1.40;;;13.70;99.90;;;;;;4974547;28;20179;-69
2022/11/01 05:43:39;;;;;;;4.67;1.30;;;13.70;99.90;;;;;;4973993;28;20180;-69
2022/11/01 05:46:06;;;;;;;6.93;1.73;;;13.70;99.90;;;;;;4973812;28;20584;-70
2022/11/01 05:48:32;;;;;;;7.47;1.67;;;13.60;99.90;;;;;;4974331;28;20715;-70
2022/11/01 05:50:58;;;;;;;5.60;1.47;;;13.50;99.90;;;;;;4973495;28;20183;-69
2022/11/01 05:53:24;;;;;;;3.80;1.57;;;13.50;99.90;;;;;;4973890;28;20176;-69
2022/11/01 05:55:49;;;;;;;9.67;1.93;;;13.40;99.90;;;;;;4974300;28;20215;-69
2022/11/01 05:58:15;;;;;;;6.80;1.60;;;13.40;99.90;;;;;;4972768;28;20168;-69
2022/11/01 06:00:40;;;;;;;8.77;1.83;;;13.40;99.90;;;;;;4974181;28;20191;-69
2022/11/01 06:03:06;;;;;;;6.77;1.60;;;13.40;99.90;;;;;;4972850;28;20226;-69
2022/11/01 06:05:32;;;;;;;8.17;1.70;;;13.40;99.90;;;;;;4974152;28;20176;-69
2022/11/01 06:08:00;;;;;;;8.47;1.40;;;13.30;99.90;;;;;;4973838;28;20511;-69
2022/11/01 06:10:27;;;;;;;6.53;2.00;;;13.30;99.90;;;;;;4973881;28;20194;-69
2022/11/01 06:12:53;;;;;;;7.60;1.87;;;13.30;99.90;;;;;;4973586;28;20172;-69
2022/11/01 06:15:19;;;;;;;5.73;1.40;;;13.30;99.90;;;;;;4973699;28;20225;-69
2022/11/01 06:17:44;;;;;;;8.23;2.10;;;13.20;99.90;;;;;;4973672;28;20180;-69
2022/11/01 06:20:10;;;;;;;9.43;2.13;;;13.10;99.90;;;;;;4973996;28;20223;-69
2022/11/01 06:22:36;;;;;;;6.63;1.83;;;13.10;99.90;;;;;;4973851;28;20211;-69
2022/11/01 06:25:03;;;;;;;5.93;2.10;;;13.00;99.90;;;;;;4973955;28;20628;-68
2022/11/01 06:27:28;;;;;;;10.73;2.23;;;13.00;99.90;;;;;;4973362;28;20268;-69
2022/11/01 06:29:54;;;;;;;7.80;2.03;;;13.00;99.90;;;;;;4973471;28;20179;-69
2022/11/01 06:32:20;;;;;;;10.90;2.30;;;13.00;99.90;;;;;;4973922;28;20255;-68
2022/11/01 06:34:45;;;;;;;5.27;2.33;;;13.00;99.90;;;;;;4973585;28;20552;-68
2022/11/01 06:37:11;;;;;;;17.03;2.70;;;13.00;99.90;;;;;;4973574;28;20330;-68
2022/11/01 06:39:37;;;;;;;8.03;2.10;;;13.00;99.90;;;;;;4973691;28;20247;-68
2022/11/01 06:42:02;;;;;;;7.57;2.13;;;12.90;99.90;;;;;;4971987;28;20175;-68
2022/11/01 06:44:28;;;;;;;6.77;1.80;;;12.90;99.90;;;;;;4973531;28;20172;-68
2022/11/01 06:46:54;;;;;;;7.73;2.23;;;12.90;99.90;;;;;;4973734;28;20220;-69
2022/11/01 06:49:20;;;;;;;6.57;2.43;;;12.80;99.90;;;;;;4973532;28;20271;-69
2022/11/01 06:51:46;;;;;;;12.50;2.50;;;13.00;99.90;;;;;;4973662;28;20179;-69
2022/11/01 06:54:12;;;;;;;6.00;2.10;;;12.90;99.90;;;;;;4971987;28;20175;-69
2022/11/01 06:56:39;;;;;;;11.80;2.53;;;12.90;99.90;;;;;;4973089;28;20588;-69
2022/11/01 06:59:04;;;;;;;13.90;2.33;;;13.00;99.90;;;;;;4973151;28;20172;-69
2022/11/01 07:01:30;;;;;;;7.87;2.10;;;13.00;99.90;;;;;;4974279;28;20182;-69
2022/11/01 07:03:56;;;;;;;9.53;2.30;;;13.00;99.90;;;;;;4976655;28;20514;-69
2022/11/01 07:06:29;;;;;;;12.60;2.07;;;13.20;99.90;;;;;;4977033;28;20195;-70
2022/11/01 07:08:55;;;;;;;7.33;1.73;;;13.30;99.90;;;;;;4977023;28;20258;-70
2022/11/01 07:11:21;;;;;;;6.33;1.80;;;13.70;99.90;;;;;;4976573;28;20183;-70
2022/11/01 07:13:47;;;;;;;6.27;2.23;;;14.10;99.90;;;;;;4976399;28;20172;-69
2022/11/01 07:16:13;;;;;;;4.17;1.67;;;14.50;99.90;;;;;;4976695;28;20215;-71
2022/11/01 07:18:38;;;;;;;8.47;2.30;;;14.80;99.90;;;;;;4976061;28;20287;-70
2022/11/01 07:21:05;;;;;;;7.23;2.10;;;15.10;99.90;;;;;;4976848;28;20176;-70
2022/11/01 07:23:30;;;;;;;6.00;2.37;;;15.40;99.90;;;;;;4976766;28;20231;-70
2022/11/01 07:25:56;;;;;;;8.03;2.23;;;15.70;99.90;;;;;;4976447;28;20632;-70
2022/11/01 07:28:22;;;;;;;6.30;2.17;;;15.80;99.90;;;;;;4976544;28;20315;-70
2022/11/01 07:30:52;;;;;;;7.13;2.37;;;16.10;99.90;;;;;;4976396;28;20223;-72
2022/11/01 07:33:19;;;;;;;9.97;2.37;;;16.30;99.90;;;;;;4976362;28;20179;-70
2022/11/01 07:35:45;;;;;;;9.10;2.50;;;16.60;99.90;;;;;;4975192;28;20212;-71
2022/11/01 07:38:10;;;;;;;6.57;1.97;;;17.00;99.90;;;;;;4976723;28;20191;-71
2022/11/01 07:40:36;;;;;;;6.10;1.90;;;17.40;99.90;;;;;;4975955;28;20176;-70
2022/11/01 07:43:03;;;;;;;8.30;2.23;;;17.80;99.90;;;;;;4976449;28;20262;-71
2022/11/01 07:45:31;;;;;;;4.82;2.22;;;17.70;99.90;;;;;;4976188;28;20175;-71
2022/11/01 07:48:01;;;;;;;6.22;2.17;;;17.90;99.90;;;;;;4976178;28;20175;-72
2022/11/01 07:50:28;;;;;;;8.75;2.00;;;18.30;99.60;;;;;;4975913;28;20207;-71
2022/11/01 07:53:06;;;;;;;5.65;2.17;;;18.20;99.10;;;;;;4975795;28;20164;-71
2022/11/01 07:55:32;;;;;;;9.68;2.33;;;18.20;99.20;;;;;;4975731;28;20175;-71
2022/11/01 07:57:57;;;;;;;7.07;2.20;;;17.90;99.60;;;;;;4975894;28;20176;-71
2022/11/01 08:00:23;;;;;;;7.07;2.28;;;17.90;99.90;;;;;;4975473;28;20578;-71
2022/11/01 08:02:49;;;;;;;7.00;2.72;;;17.80;99.90;;;;;;4975649;28;20585;-70
2022/11/01 08:05:15;;;;;;;6.15;2.17;;;18.20;99.60;;;;;;4976147;28;20260;-71
2022/11/01 08:07:41;;;;;;;7.45;2.55;;;18.30;99.10;;;;;;4975802;28;20183;-72
2022/11/01 08:10:09;;;;;;;7.68;2.17;;;18.70;98.90;;;;;;4975290;28;20188;-72
2022/11/01 08:12:34;;;;;;;5.85;2.05;;;19.50;97.30;;;;;;4975597;28;20168;-71
2022/11/01 08:15:01;;;;;;;5.32;1.90;;;19.40;96.50;;;;;;4975572;28;20176;-71
2022/11/01 08:17:28;;;;;;;8.00;2.10;;;19.40;96.10;;;;;;4974293;28;20683;-71
2022/11/01 08:19:53;;;;;;;5.90;2.25;;;19.80;96.10;;;;;;4975774;28;20223;-72
2022/11/01 08:22:19;;;;;;;6.38;2.28;;;20.00;94.80;;;;;;4975316;28;20180;-71
2022/11/01 08:24:45;;;;;;;8.18;2.00;;;19.80;95.10;;;;;;4975049;28;20168;-70
2022/11/01 08:27:10;;;;;;;8.90;2.35;;;19.40;95.80;;;;;;4975365;28;20184;-71
2022/11/01 08:29:36;;;;;;;7.93;2.25;;;19.50;95.90;;;;;;4975154;28;20183;-70
2022/11/01 08:32:02;;;;;;;6.18;2.25;;;19.50;96.50;;;;;;4975591;28;20223;-72
2022/11/01 08:34:29;;;;;;;7.13;2.42;;;19.80;95.80;;;;;;4975461;28;20160;-72
2022/11/01 08:36:55;;;;;;;9.85;2.30;;;19.90;95.20;;;;;;4974145;28;20235;-72
2022/11/01 08:39:21;;;;;;;7.05;2.42;;;19.90;95.20;;;;;;4974942;28;20657;-72
2022/11/01 08:41:48;;;;;;;5.03;2.20;;;19.90;95.20;;;;;;4975648;28;20207;-72
2022/11/01 08:44:14;;;;;;;9.68;2.70;;;20.40;94.20;;;;;;4974838;28;20168;-71
2022/11/01 08:46:41;;;;;;;6.35;2.13;;;20.20;99.90;;;;;;4975066;28;20715;-71
2022/11/01 08:49:12;;;;;;;5.75;2.58;;;20.30;61.70;;;;;;4974864;28;20187;-71
2022/11/01 08:51:37;;;;;;;6.13;2.50;;;20.80;25.90;;;;;;4975246;28;20223;-71
2022/11/01 08:54:04;;;;;;;3.38;2.42;;;20.90;1.00;;;;;;4974422;28;20171;-70
2022/11/01 08:56:30;;;;;;;6.00;2.05;;;20.50;29.30;;;;;;4974625;28;20694;-71
2022/11/01 08:58:56;;;;;;;6.10;2.30;;;20.60;1.00;;;;;;4974372;28;20187;-71
2022/11/01 09:01:25;;;;;;;4.88;2.40;;;21.00;1.00;;;;;;4974208;28;20168;-72
2022/11/01 09:03:57;;;;;;;5.78;2.80;;;21.30;1.00;;;;;;4974621;28;20176;-72
2022/11/01 09:06:23;;;;;;;7.03;2.47;;;20.60;1.00;;;;;;4974914;28;20238;-71
2022/11/01 09:08:49;;;;;;;8.15;2.88;;;20.50;1.00;;;;;;4973341;28;20172;-72
2022/11/01 09:11:15;;;;;;;6.88;2.35;;;20.70;1.00;;;;;;4973903;28;20189;-72
2022/11/01 09:13:41;;;;;;;4.88;2.13;;;20.70;1.00;;;;;;4973221;28;20176;-71
2022/11/01 09:16:07;;;;;;;4.65;2.17;;;20.60;1.00;;;;;;4974627;28;20210;-71
2022/11/01 09:18:33;;;;;;;5.78;2.22;;;20.70;1.00;;;;;;4974624;28;20235;-72
2022/11/01 09:20:59;;;;;;;5.45;1.98;;;20.10;33.50;;;;;;4973644;28;20179;-70
2022/11/01 09:23:25;;;;;;;5.90;2.38;;;20.00;99.90;;;;;;4974640;28;20171;-70
2022/11/01 09:25:51;;;;;;;7.53;2.40;;;20.30;91.20;;;;;;4973900;28;20179;-71
2022/11/01 09:28:17;;;;;;;5.22;1.95;;;20.50;60.80;;;;;;4974235;28;20168;-72
2022/11/01 09:30:42;;;;;;;8.02;2.53;;;21.40;1.00;;;;;;4974074;28;20273;-72
2022/11/01 09:33:08;;;;;;;6.70;2.15;;;21.50;1.00;;;;;;4973894;28;20266;-71
2022/11/01 09:35:34;;;;;;;4.45;2.40;;;21.30;1.00;;;;;;4973688;28;20596;-72
2022/11/01 09:38:01;;;;;;;7.22;2.38;;;21.10;1.00;;;;;;4974395;28;20190;-71
2022/11/01 09:40:34;;;;;;;8.23;2.22;;;20.90;1.00;;;;;;4973849;28;20199;-71
2022/11/01 09:43:02;;;;;;;8.65;2.25;;;21.10;1.00;;;;;;4974128;28;20172;-72
2022/11/01 09:45:31;;;;;;;9.38;2.63;;;21.20;1.00;;;;;;4974148;28;20160;-72
2022/11/01 09:47:58;;;;;;;6.15;2.17;;;21.30;1.00;;;;;;4974352;28;20183;-72
2022/11/01 09:50:33;;;;;;;5.35;2.10;;;21.50;1.00;;;;;;4973722;28;20267;-72
2022/11/01 09:52:59;;;;;;;10.63;2.40;;;21.40;1.00;;;;;;4973539;28;20183;-72
2022/11/01 09:55:52;;;;;;;4.25;2.13;;;21.60;1.00;;;;;;4973891;28;20182;-71
2022/11/01 09:58:51;;;;;;;11.27;2.70;;;21.70;1.00;;;;;;4973386;28;20172;-73
2022/11/01 10:01:23;;;;;;;6.00;2.30;;;22.50;1.00;;;;;;4973725;28;20176;-72
2022/11/01 10:04:09;;;;;;;4.28;2.53;;;22.20;1.00;;;;;;4973506;28;20311;-72
2022/11/01 10:06:57;;;;;;;8.13;2.90;;;21.80;1.00;;;;;;4962772;28;20239;-72
2022/11/01 10:09:45;;;;;;;4.22;1.92;;;21.60;1.00;;;;;;4973445;28;20633;-72
2022/11/01 10:12:45;;;;;;;6.18;2.05;;;22.00;1.00;;;;;;4973923;28;20176;-72
2022/11/01 10:15:26;;;;;;;5.93;2.50;;;22.10;1.00;;;;;;4973559;28;20168;-73
2022/11/01 10:17:54;;;;;;;6.60;2.45;;;22.30;1.00;;;;;;4973875;28;20212;-73
2022/11/01 10:20:25;;;;;;;5.70;2.60;;;22.50;1.00;;;;;;4973480;28;20637;-72
2022/11/01 10:22:51;;;;;;;4.45;2.13;;;22.60;1.00;;;;;;4973678;28;20176;-71
2022/11/01 10:25:26;;;;;;;8.63;2.53;;;22.10;1.00;;;;;;4973953;28;20175;-73
2022/11/01 10:28:04;;;;;;;6.05;2.42;;;21.80;1.00;;;;;;4973455;28;20163;-72
2022/11/01 10:30:36;;;;;;;5.60;2.05;;;20.80;1.00;;;;;;4973537;28;20235;-72
2022/11/01 10:33:04;;;;;;;6.47;2.22;;;21.30;1.00;;;;;;4973234;28;20263;-71
2022/11/01 10:35:41;;;;;;;7.95;2.30;;;21.20;1.00;;;;;;4973932;28;20186;-71
2022/11/01 10:38:35;;;;;;;3.75;1.90;;;21.10;1.00;;;;;;4977261;28;20234;-72
2022/11/01 10:41:13;;;;;;;10.05;2.50;;;21.00;1.00;;;;;;4977298;28;20187;-71
2022/11/01 10:43:48;;;;;;;7.47;2.45;;;21.00;1.00;;;;;;4976156;28;20176;-72
2022/11/01 10:46:23;;;;;;;6.47;2.72;;;21.10;1.00;;;;;;4976703;28;20652;-70
2022/11/01 10:48:57;;;;;;;8.35;2.20;;;21.60;1.00;;;;;;4976809;28;20636;-72
2022/11/01 10:51:25;;;;;;;6.85;2.63;;;21.00;1.00;;;;;;4976971;28;20180;-72
2022/11/01 10:53:57;;;;;;;8.55;2.95;;;21.20;1.00;;;;;;4976773;28;20187;-71
2022/11/01 10:56:43;;;;;;;10.30;2.45;;;20.90;1.00;;;;;;4976903;28;20815;-71
2022/11/01 10:59:28;;;;;;;7.43;2.55;;;21.10;1.00;;;;;;4976636;28;20171;-71
2022/11/01 11:01:55;;;;;;;6.43;2.65;;;20.80;15.90;;;;;;4976644;28;20171;-72
2022/11/01 11:04:23;;;;;;;6.80;2.42;;;20.80;12.10;;;;;;4976311;28;20172;-72
2022/11/01 11:06:50;;;;;;;7.20;2.55;;;20.90;1.00;;;;;;4976496;28;20288;-71
2022/11/01 11:09:29;;;;;;;6.97;2.40;;;21.00;1.00;;;;;;4976921;28;20597;-72
2022/11/01 11:12:00;;;;;;;5.70;2.03;;;21.10;1.00;;;;;;4976576;28;20171;-71
2022/11/01 11:14:30;;;;;;;6.00;2.35;;;20.80;1.00;;;;;;4976866;28;20262;-71
2022/11/01 11:16:56;;;;;;;4.03;2.25;;;21.10;1.00;;;;;;4976180;28;20271;-71
2022/11/01 11:19:28;;;;;;;5.57;2.55;;;21.20;1.00;;;;;;4976358;28;20190;-70
2022/11/01 11:21:55;;;;;;;6.43;2.47;;;20.80;1.00;;;;;;4976719;28;20183;-71
2022/11/01 11:24:23;;;;;;;5.20;2.00;;;21.00;1.00;;;;;;4976566;28;20726;-71
2022/11/01 11:26:53;;;;;;;6.25;2.15;;;21.10;1.00;;;;;;4976415;28;20247;-71
2022/11/01 11:29:38;;;;;;;8.00;2.60;;;20.70;1.00;;;;;;4977382;28;20182;-71
2022/11/01 11:32:13;;;;;;;6.05;1.98;;;20.60;91.40;;;;;;4975692;28;20223;-70
2022/11/01 11:34:40;;;;;;;5.50;2.53;;;20.20;99.90;;;;;;4976642;28;20161;-72
2022/11/01 11:37:13;;;;;;;6.07;2.50;;;20.30;1.00;;;;;;4976251;28;20210;-70
2022/11/01 11:39:40;;;;;;;9.35;2.97;;;20.40;99.90;;;;;;4974823;28;20183;-70
2022/11/01 11:42:23;;;;;;;4.60;2.15;;;20.30;1.00;;;;;;4976316;28;20266;-69
2022/11/01 11:44:53;;;;;;;5.78;2.30;;;19.80;41.80;;;;;;4976010;28;20180;-71
2022/11/01 11:47:20;;;;;;;5.78;2.35;;;19.60;1.00;;;;;;4974758;28;20220;-70
2022/11/01 11:49:48;;;;;;;5.30;2.40;;;19.50;99.90;;;;;;4975974;28;20187;-70
2022/11/01 11:52:18;;;;;;;7.22;1.90;;;19.40;1.00;;;;;;4975817;28;20255;-71
2022/11/01 11:54:44;;;;;;;9.07;2.35;;;19.40;1.00;;;;;;4976243;28;20208;-71
2022/11/01 11:57:15;;;;;;;7.78;2.28;;;19.00;1.00;;;;;;4975255;28;20227;-71
2022/11/01 11:59:42;;;;;;;5.68;1.75;;;19.00;99.90;;;;;;4975443;28;20203;-71
2022/11/01 12:02:22;;;;;;;6.97;2.38;;;19.00;51.40;;;;;;4975801;28;20325;-70
2022/11/01 12:05:00;;;;;;;8.27;2.47;;;18.90;98.40;;;;;;4976015;28;20168;-70
2022/11/01 12:07:30;;;;;;;6.65;2.20;;;18.80;99.00;;;;;;4975794;28;20186;-70
2022/11/01 12:10:00;;;;;;;6.32;2.33;;;18.60;99.30;;;;;;4975627;28;20258;-69
2022/11/01 12:12:39;;;;;;;7.82;2.70;;;18.50;99.60;;;;;;4975143;28;20200;-69
2022/11/01 12:15:24;;;;;;;8.75;2.78;;;18.30;99.90;;;;;;4975553;28;20250;-70
2022/11/01 12:17:50;;;;;;;8.00;2.25;;;18.40;99.90;;;;;;4974917;28;20220;-69
2022/11/01 12:20:25;;;;;;;7.40;2.35;;;18.40;99.90;;;;;;4973908;28;20552;-69
2022/11/01 12:23:06;;;;;;;8.63;2.60;;;18.40;99.90;;;;;;4975076;28;20260;-70
2022/11/01 12:25:34;;;;;;;8.25;2.80;;;18.30;99.90;;;;;;4975435;28;20175;-70
2022/11/01 12:28:04;;;;;;;7.47;2.45;;;18.30;99.90;;;;;;4974842;28;20179;-69
2022/11/01 12:30:32;;;;;;;10.27;2.60;;;18.20;99.90;;;;;;4974854;28;20223;-69
2022/11/01 12:33:01;;;;;;;4.95;2.22;;;17.90;99.90;;;;;;4975148;28;20179;-69
2022/11/01 12:35:31;;;;;;;7.88;3.65;;;17.80;99.90;;;;;;4975490;28;20255;-70
2022/11/01 12:38:31;;;;;;;10.57;2.50;;;17.80;99.90;;;;;;4974529;28;20667;-70
2022/11/01 12:41:01;;;;;;;12.43;3.00;;;17.70;99.90;;;;;;4975114;28;20272;-71
2022/11/01 12:43:54;;;;;;;5.83;2.60;;;17.70;99.90;;;;;;4974964;28;20171;-70
2022/11/01 12:46:29;;;;;;;8.13;2.53;;;17.60;99.90;;;;;;4974590;28;20172;-70
2022/11/01 12:49:28;;;;;;;9.23;2.43;;;17.70;99.90;;;;;;4975070;28;20172;-70
2022/11/01 12:52:00;;;;;;;6.90;2.60;;;17.80;99.90;;;;;;4974537;28;20179;-70
2022/11/01 12:54:40;;;;;;;9.27;2.27;;;17.70;99.90;;;;;;4973486;28;20537;-70
2022/11/01 12:57:17;;;;;;;7.93;2.70;;;17.60;99.90;;;;;;4974387;28;20257;-70
2022/11/01 12:59:44;;;;;;;9.77;2.70;;;17.60;99.90;;;;;;4973641;28;20168;-70
2022/11/01 13:02:28;;;;;;;8.17;2.53;;;17.70;99.90;;;;;;4974770;28;20699;-70
2022/11/01 13:05:06;;;;;;;6.57;2.40;;;17.80;99.90;;;;;;4974624;28;20164;-70
2022/11/01 13:08:00;;;;;;;8.97;2.33;;;17.70;99.90;;;;;;4974210;28;20210;-70
2022/11/01 13:10:34;;;;;;;8.80;2.33;;;17.60;99.90;;;;;;4973625;28;20663;-70